sensor_id;sensor_type;location;lat;lon;timestamp;temperature;humidity
41058;DHT22;27499;48.884;2.258;2022-07-17T00:00:28;23.30;70.60
41058;DHT22;27499;48.884;2.258;2022-07-17T00:02:55;23.20;71.50
41058;DHT22;27499;48.884;2.258;2022-07-17T00:05:22;23.20;71.30
41058;DHT22;27499;48.884;2.258;2022-07-17T00:07:49;23.10;70.80
41058;DHT22;27499;48.884;2.258;2022-07-17T00:10:16;23.10;71.00
41058;DHT22;27499;48.884;2.258;2022-07-17T00:12:44;23.10;70.60
41058;DHT22;27499;48.884;2.258;2022-07-17T00:15:11;23.10;71.10
41058;DHT22;27499;48.884;2.258;2022-07-17T00:17:39;23.00;71.60
41058;DHT22;27499;48.884;2.258;2022-07-17T00:20:07;23.00;70.90
41058;DHT22;27499;48.884;2.258;2022-07-17T00:22:34;23.00;72.20
41058;DHT22;27499;48.884;2.258;2022-07-17T00:25:03;22.90;71.10
41058;DHT22;27499;48.884;2.258;2022-07-17T00:27:31;22.90;72.20
41058;DHT22;27499;48.884;2.258;2022-07-17T00:29:58;22.90;71.40
41058;DHT22;27499;48.884;2.258;2022-07-17T00:32:25;22.90;72.20
41058;DHT22;27499;48.884;2.258;2022-07-17T00:34:52;22.90;72.10
41058;DHT22;27499;48.884;2.258;2022-07-17T00:37:19;22.90;71.80
41058;DHT22;27499;48.884;2.258;2022-07-17T00:39:47;22.80;71.80
41058;DHT22;27499;48.884;2.258;2022-07-17T00:42:15;22.80;71.70
41058;DHT22;27499;48.884;2.258;2022-07-17T00:44:43;22.80;71.70
41058;DHT22;27499;48.884;2.258;2022-07-17T00:47:17;22.80;71.90
41058;DHT22;27499;48.884;2.258;2022-07-17T00:49:46;22.70;72.00
41058;DHT22;27499;48.884;2.258;2022-07-17T00:52:14;22.70;72.30
41058;DHT22;27499;48.884;2.258;2022-07-17T00:54:43;22.70;72.90
41058;DHT22;27499;48.884;2.258;2022-07-17T00:57:13;22.70;73.00
41058;DHT22;27499;48.884;2.258;2022-07-17T00:59:42;22.70;72.50
41058;DHT22;27499;48.884;2.258;2022-07-17T01:02:11;22.60;72.50
41058;DHT22;27499;48.884;2.258;2022-07-17T01:04:39;22.60;72.60
41058;DHT22;27499;48.884;2.258;2022-07-17T01:07:07;22.60;72.70
41058;DHT22;27499;48.884;2.258;2022-07-17T01:09:34;22.60;74.60
41058;DHT22;27499;48.884;2.258;2022-07-17T01:12:03;22.60;73.00
41058;DHT22;27499;48.884;2.258;2022-07-17T01:14:32;22.50;73.50
41058;DHT22;27499;48.884;2.258;2022-07-17T01:16:59;22.50;72.90
41058;DHT22;27499;48.884;2.258;2022-07-17T01:19:27;22.50;73.00
41058;DHT22;27499;48.884;2.258;2022-07-17T01:21:54;22.50;73.00
41058;DHT22;27499;48.884;2.258;2022-07-17T01:24:21;22.40;73.40
41058;DHT22;27499;48.884;2.258;2022-07-17T01:26:48;22.40;73.20
41058;DHT22;27499;48.884;2.258;2022-07-17T01:29:16;22.40;74.50
41058;DHT22;27499;48.884;2.258;2022-07-17T01:31:44;22.40;73.60
41058;DHT22;27499;48.884;2.258;2022-07-17T01:34:12;22.40;73.90
41058;DHT22;27499;48.884;2.258;2022-07-17T01:36:40;22.30;74.70
41058;DHT22;27499;48.884;2.258;2022-07-17T01:39:08;22.30;73.90
41058;DHT22;27499;48.884;2.258;2022-07-17T01:41:35;22.20;74.00
41058;DHT22;27499;48.884;2.258;2022-07-17T01:44:02;22.20;73.70
41058;DHT22;27499;48.884;2.258;2022-07-17T01:46:30;22.20;74.00
41058;DHT22;27499;48.884;2.258;2022-07-17T01:48:58;22.20;74.50
41058;DHT22;27499;48.884;2.258;2022-07-17T01:51:28;22.10;75.10
41058;DHT22;27499;48.884;2.258;2022-07-17T01:53:57;22.10;73.70
41058;DHT22;27499;48.884;2.258;2022-07-17T01:56:24;22.10;74.20
41058;DHT22;27499;48.884;2.258;2022-07-17T01:58:51;22.10;74.40
41058;DHT22;27499;48.884;2.258;2022-07-17T02:01:18;22.10;74.50
41058;DHT22;27499;48.884;2.258;2022-07-17T02:03:45;22.10;74.60
41058;DHT22;27499;48.884;2.258;2022-07-17T02:06:12;22.10;74.10
41058;DHT22;27499;48.884;2.258;2022-07-17T02:08:39;22.00;74.00
41058;DHT22;27499;48.884;2.258;2022-07-17T02:11:06;22.00;74.00
41058;DHT22;27499;48.884;2.258;2022-07-17T02:13:33;22.10;73.90
41058;DHT22;27499;48.884;2.258;2022-07-17T02:16:00;22.00;73.90
41058;DHT22;27499;48.884;2.258;2022-07-17T02:18:27;22.00;74.70
41058;DHT22;27499;48.884;2.258;2022-07-17T02:20:54;22.00;74.10
41058;DHT22;27499;48.884;2.258;2022-07-17T02:23:21;22.00;75.30
41058;DHT22;27499;48.884;2.258;2022-07-17T02:25:48;21.90;74.80
41058;DHT22;27499;48.884;2.258;2022-07-17T02:28:15;21.90;74.80
41058;DHT22;27499;48.884;2.258;2022-07-17T02:30:42;21.90;74.20
41058;DHT22;27499;48.884;2.258;2022-07-17T02:33:09;21.90;75.10
41058;DHT22;27499;48.884;2.258;2022-07-17T02:35:36;21.90;75.20
41058;DHT22;27499;48.884;2.258;2022-07-17T02:38:03;21.90;74.50
41058;DHT22;27499;48.884;2.258;2022-07-17T02:40:30;21.90;74.30
41058;DHT22;27499;48.884;2.258;2022-07-17T02:42:58;21.80;74.90
41058;DHT22;27499;48.884;2.258;2022-07-17T02:45:25;21.80;74.10
41058;DHT22;27499;48.884;2.258;2022-07-17T02:47:53;21.80;74.40
41058;DHT22;27499;48.884;2.258;2022-07-17T02:50:22;21.80;74.80
41058;DHT22;27499;48.884;2.258;2022-07-17T02:52:49;21.80;74.40
41058;DHT22;27499;48.884;2.258;2022-07-17T02:55:16;21.70;74.80
41058;DHT22;27499;48.884;2.258;2022-07-17T02:57:44;21.70;75.40
41058;DHT22;27499;48.884;2.258;2022-07-17T03:00:15;21.70;74.30
41058;DHT22;27499;48.884;2.258;2022-07-17T03:02:43;21.60;74.40
41058;DHT22;27499;48.884;2.258;2022-07-17T03:05:12;21.60;75.50
41058;DHT22;27499;48.884;2.258;2022-07-17T03:07:39;21.60;75.30
41058;DHT22;27499;48.884;2.258;2022-07-17T03:10:07;21.60;74.90
41058;DHT22;27499;48.884;2.258;2022-07-17T03:12:34;21.50;74.80
41058;DHT22;27499;48.884;2.258;2022-07-17T03:15:02;21.60;75.50
41058;DHT22;27499;48.884;2.258;2022-07-17T03:17:29;21.50;75.10
41058;DHT22;27499;48.884;2.258;2022-07-17T03:19:56;21.50;75.00
41058;DHT22;27499;48.884;2.258;2022-07-17T03:22:23;21.50;75.00
41058;DHT22;27499;48.884;2.258;2022-07-17T03:24:50;21.40;75.10
41058;DHT22;27499;48.884;2.258;2022-07-17T03:27:17;21.40;75.10
41058;DHT22;27499;48.884;2.258;2022-07-17T03:29:45;21.40;75.10
41058;DHT22;27499;48.884;2.258;2022-07-17T03:32:12;21.40;75.30
41058;DHT22;27499;48.884;2.258;2022-07-17T03:34:40;21.40;75.20
41058;DHT22;27499;48.884;2.258;2022-07-17T03:37:07;21.30;75.30
41058;DHT22;27499;48.884;2.258;2022-07-17T03:39:34;21.30;76.20
41058;DHT22;27499;48.884;2.258;2022-07-17T03:42:01;21.30;75.60
41058;DHT22;27499;48.884;2.258;2022-07-17T03:44:28;21.30;76.10
41058;DHT22;27499;48.884;2.258;2022-07-17T03:46:55;21.30;76.60
41058;DHT22;27499;48.884;2.258;2022-07-17T03:49:22;21.20;75.90
41058;DHT22;27499;48.884;2.258;2022-07-17T03:51:49;21.20;76.10
41058;DHT22;27499;48.884;2.258;2022-07-17T03:54:16;21.20;76.40
41058;DHT22;27499;48.884;2.258;2022-07-17T03:56:43;21.20;76.20
41058;DHT22;27499;48.884;2.258;2022-07-17T03:59:10;21.20;76.20
41058;DHT22;27499;48.884;2.258;2022-07-17T04:01:37;21.10;76.30
41058;DHT22;27499;48.884;2.258;2022-07-17T04:04:04;21.10;77.30
41058;DHT22;27499;48.884;2.258;2022-07-17T04:06:31;21.10;76.50
41058;DHT22;27499;48.884;2.258;2022-07-17T04:08:58;21.10;76.60
41058;DHT22;27499;48.884;2.258;2022-07-17T04:11:25;21.10;76.80
41058;DHT22;27499;48.884;2.258;2022-07-17T04:13:52;21.10;77.20
41058;DHT22;27499;48.884;2.258;2022-07-17T04:16:19;21.10;77.20
41058;DHT22;27499;48.884;2.258;2022-07-17T04:18:46;21.10;77.20
41058;DHT22;27499;48.884;2.258;2022-07-17T04:21:13;21.00;78.30
41058;DHT22;27499;48.884;2.258;2022-07-17T04:23:40;21.00;78.20
41058;DHT22;27499;48.884;2.258;2022-07-17T04:26:07;21.00;78.30
41058;DHT22;27499;48.884;2.258;2022-07-17T04:28:37;21.00;78.00
41058;DHT22;27499;48.884;2.258;2022-07-17T04:31:04;21.00;78.10
41058;DHT22;27499;48.884;2.258;2022-07-17T04:33:31;21.00;78.00
41058;DHT22;27499;48.884;2.258;2022-07-17T04:35:58;21.00;78.20
41058;DHT22;27499;48.884;2.258;2022-07-17T04:38:25;20.90;78.00
41058;DHT22;27499;48.884;2.258;2022-07-17T04:40:52;20.90;78.20
41058;DHT22;27499;48.884;2.258;2022-07-17T04:43:19;20.80;78.90
41058;DHT22;27499;48.884;2.258;2022-07-17T04:45:46;20.80;79.60
41058;DHT22;27499;48.884;2.258;2022-07-17T04:48:13;20.80;78.20
41058;DHT22;27499;48.884;2.258;2022-07-17T04:50:40;20.80;79.00
41058;DHT22;27499;48.884;2.258;2022-07-17T04:53:07;20.80;79.10
41058;DHT22;27499;48.884;2.258;2022-07-17T04:55:34;20.80;78.20
41058;DHT22;27499;48.884;2.258;2022-07-17T04:58:01;20.80;79.00
41058;DHT22;27499;48.884;2.258;2022-07-17T05:00:28;20.80;78.30
41058;DHT22;27499;48.884;2.258;2022-07-17T05:02:55;20.80;78.10
41058;DHT22;27499;48.884;2.258;2022-07-17T05:05:22;20.80;78.50
41058;DHT22;27499;48.884;2.258;2022-07-17T05:07:49;20.80;78.60
41058;DHT22;27499;48.884;2.258;2022-07-17T05:10:16;20.80;78.40
41058;DHT22;27499;48.884;2.258;2022-07-17T05:12:43;20.80;79.70
41058;DHT22;27499;48.884;2.258;2022-07-17T05:15:10;20.80;79.10
41058;DHT22;27499;48.884;2.258;2022-07-17T05:17:37;20.80;78.70
41058;DHT22;27499;48.884;2.258;2022-07-17T05:20:04;20.70;79.50
41058;DHT22;27499;48.884;2.258;2022-07-17T05:22:31;20.70;79.00
41058;DHT22;27499;48.884;2.258;2022-07-17T05:24:58;20.70;78.80
41058;DHT22;27499;48.884;2.258;2022-07-17T05:27:25;20.70;78.30
41058;DHT22;27499;48.884;2.258;2022-07-17T05:29:53;20.70;78.70
41058;DHT22;27499;48.884;2.258;2022-07-17T05:32:21;20.70;78.80
41058;DHT22;27499;48.884;2.258;2022-07-17T05:34:48;20.60;79.40
41058;DHT22;27499;48.884;2.258;2022-07-17T05:37:15;20.60;79.30
41058;DHT22;27499;48.884;2.258;2022-07-17T05:39:42;20.60;79.60
41058;DHT22;27499;48.884;2.258;2022-07-17T05:42:09;20.70;79.40
41058;DHT22;27499;48.884;2.258;2022-07-17T05:44:36;20.60;79.00
41058;DHT22;27499;48.884;2.258;2022-07-17T05:47:03;20.60;78.70
41058;DHT22;27499;48.884;2.258;2022-07-17T05:49:29;20.70;78.50
41058;DHT22;27499;48.884;2.258;2022-07-17T05:51:56;20.60;79.90
41058;DHT22;27499;48.884;2.258;2022-07-17T05:54:23;20.60;78.60
41058;DHT22;27499;48.884;2.258;2022-07-17T05:56:50;20.70;78.70
41058;DHT22;27499;48.884;2.258;2022-07-17T05:59:17;20.60;79.70
41058;DHT22;27499;48.884;2.258;2022-07-17T06:01:44;20.70;79.40
41058;DHT22;27499;48.884;2.258;2022-07-17T06:04:11;20.70;79.10
41058;DHT22;27499;48.884;2.258;2022-07-17T06:06:38;20.70;79.30
41058;DHT22;27499;48.884;2.258;2022-07-17T06:09:05;20.70;78.70
41058;DHT22;27499;48.884;2.258;2022-07-17T06:11:32;20.70;78.90
41058;DHT22;27499;48.884;2.258;2022-07-17T06:14:03;20.80;78.30
41058;DHT22;27499;48.884;2.258;2022-07-17T06:16:30;20.80;78.90
41058;DHT22;27499;48.884;2.258;2022-07-17T06:18:57;20.80;78.60
41058;DHT22;27499;48.884;2.258;2022-07-17T06:21:24;20.80;79.10
41058;DHT22;27499;48.884;2.258;2022-07-17T06:23:52;20.90;79.20
41058;DHT22;27499;48.884;2.258;2022-07-17T06:26:19;20.90;78.30
41058;DHT22;27499;48.884;2.258;2022-07-17T06:28:46;20.90;78.90
41058;DHT22;27499;48.884;2.258;2022-07-17T06:31:13;20.90;78.00
41058;DHT22;27499;48.884;2.258;2022-07-17T06:33:40;21.00;78.40
41058;DHT22;27499;48.884;2.258;2022-07-17T06:36:07;21.00;77.80
41058;DHT22;27499;48.884;2.258;2022-07-17T06:38:33;21.00;78.60
41058;DHT22;27499;48.884;2.258;2022-07-17T06:41:01;21.10;78.00
41058;DHT22;27499;48.884;2.258;2022-07-17T06:43:28;21.10;78.40
41058;DHT22;27499;48.884;2.258;2022-07-17T06:45:55;21.10;78.10
41058;DHT22;27499;48.884;2.258;2022-07-17T06:48:23;21.10;78.30
41058;DHT22;27499;48.884;2.258;2022-07-17T06:50:50;21.10;78.30
41058;DHT22;27499;48.884;2.258;2022-07-17T06:53:17;21.20;78.20
41058;DHT22;27499;48.884;2.258;2022-07-17T06:55:44;21.20;77.30
41058;DHT22;27499;48.884;2.258;2022-07-17T06:58:11;21.30;76.60
41058;DHT22;27499;48.884;2.258;2022-07-17T07:00:38;21.30;76.00
41058;DHT22;27499;48.884;2.258;2022-07-17T07:03:05;21.30;76.70
41058;DHT22;27499;48.884;2.258;2022-07-17T07:05:32;21.30;76.40
41058;DHT22;27499;48.884;2.258;2022-07-17T07:07:59;21.30;76.60
41058;DHT22;27499;48.884;2.258;2022-07-17T07:10:26;21.40;76.50
41058;DHT22;27499;48.884;2.258;2022-07-17T07:12:53;21.40;78.40
41058;DHT22;27499;48.884;2.258;2022-07-17T07:15:20;21.50;76.50
41058;DHT22;27499;48.884;2.258;2022-07-17T07:17:47;21.50;77.70
41058;DHT22;27499;48.884;2.258;2022-07-17T07:20:14;21.60;77.20
41058;DHT22;27499;48.884;2.258;2022-07-17T07:22:41;21.60;76.00
41058;DHT22;27499;48.884;2.258;2022-07-17T07:25:08;21.70;77.80
41058;DHT22;27499;48.884;2.258;2022-07-17T07:27:35;21.70;76.20
41058;DHT22;27499;48.884;2.258;2022-07-17T07:30:03;21.80;76.20
41058;DHT22;27499;48.884;2.258;2022-07-17T07:32:29;21.80;75.70
41058;DHT22;27499;48.884;2.258;2022-07-17T07:34:56;21.90;75.30
41058;DHT22;27499;48.884;2.258;2022-07-17T07:37:23;21.90;75.80
41058;DHT22;27499;48.884;2.258;2022-07-17T07:39:50;22.00;76.30
41058;DHT22;27499;48.884;2.258;2022-07-17T07:42:17;22.00;75.70
41058;DHT22;27499;48.884;2.258;2022-07-17T07:44:44;22.10;76.70
41058;DHT22;27499;48.884;2.258;2022-07-17T07:47:11;22.20;76.70
41058;DHT22;27499;48.884;2.258;2022-07-17T07:49:38;22.20;76.20
41058;DHT22;27499;48.884;2.258;2022-07-17T07:52:06;22.30;75.90
41058;DHT22;27499;48.884;2.258;2022-07-17T07:54:34;22.30;75.30
41058;DHT22;27499;48.884;2.258;2022-07-17T07:57:01;22.40;74.40
41058;DHT22;27499;48.884;2.258;2022-07-17T07:59:29;22.40;73.70
41058;DHT22;27499;48.884;2.258;2022-07-17T08:02:00;22.50;73.30
41058;DHT22;27499;48.884;2.258;2022-07-17T08:04:27;22.50;73.60
41058;DHT22;27499;48.884;2.258;2022-07-17T08:06:54;22.60;73.70
41058;DHT22;27499;48.884;2.258;2022-07-17T08:09:21;22.60;74.10
41058;DHT22;27499;48.884;2.258;2022-07-17T08:11:49;22.60;74.60
41058;DHT22;27499;48.884;2.258;2022-07-17T08:14:16;22.70;73.20
41058;DHT22;27499;48.884;2.258;2022-07-17T08:16:43;22.70;72.10
41058;DHT22;27499;48.884;2.258;2022-07-17T08:19:10;22.80;73.30
41058;DHT22;27499;48.884;2.258;2022-07-17T08:21:37;22.80;73.80
41058;DHT22;27499;48.884;2.258;2022-07-17T08:24:04;22.90;74.40
41058;DHT22;27499;48.884;2.258;2022-07-17T08:26:31;22.90;72.70
41058;DHT22;27499;48.884;2.258;2022-07-17T08:28:58;23.00;72.40
41058;DHT22;27499;48.884;2.258;2022-07-17T08:31:25;23.10;71.30
41058;DHT22;27499;48.884;2.258;2022-07-17T08:33:52;23.10;71.20
41058;DHT22;27499;48.884;2.258;2022-07-17T08:36:20;23.20;71.20
41058;DHT22;27499;48.884;2.258;2022-07-17T08:38:47;23.30;71.80
41058;DHT22;27499;48.884;2.258;2022-07-17T08:41:15;23.30;70.10
41058;DHT22;27499;48.884;2.258;2022-07-17T08:43:43;23.40;69.70
41058;DHT22;27499;48.884;2.258;2022-07-17T08:46:11;23.40;69.70
41058;DHT22;27499;48.884;2.258;2022-07-17T08:48:45;23.50;69.20
41058;DHT22;27499;48.884;2.258;2022-07-17T08:51:12;23.50;69.20
41058;DHT22;27499;48.884;2.258;2022-07-17T08:53:42;23.60;68.90
41058;DHT22;27499;48.884;2.258;2022-07-17T08:56:10;23.60;69.30
41058;DHT22;27499;48.884;2.258;2022-07-17T08:58:38;23.60;69.50
41058;DHT22;27499;48.884;2.258;2022-07-17T09:01:05;23.70;70.40
41058;DHT22;27499;48.884;2.258;2022-07-17T09:03:33;23.70;69.00
41058;DHT22;27499;48.884;2.258;2022-07-17T09:06:21;23.80;69.70
41058;DHT22;27499;48.884;2.258;2022-07-17T09:09:00;23.80;67.80
41058;DHT22;27499;48.884;2.258;2022-07-17T09:11:30;23.90;68.00
41058;DHT22;27499;48.884;2.258;2022-07-17T09:14:07;23.90;69.10
41058;DHT22;27499;48.884;2.258;2022-07-17T09:16:54;24.00;68.90
41058;DHT22;27499;48.884;2.258;2022-07-17T09:19:30;24.00;69.30
41058;DHT22;27499;48.884;2.258;2022-07-17T09:22:18;24.00;68.40
41058;DHT22;27499;48.884;2.258;2022-07-17T09:24:57;24.10;68.50
41058;DHT22;27499;48.884;2.258;2022-07-17T09:30:10;24.20;67.00
41058;DHT22;27499;48.884;2.258;2022-07-17T09:32:39;24.30;66.20
41058;DHT22;27499;48.884;2.258;2022-07-17T09:35:09;24.30;65.40
41058;DHT22;27499;48.884;2.258;2022-07-17T09:37:37;24.40;64.90
41058;DHT22;27499;48.884;2.258;2022-07-17T09:40:14;24.40;65.80
41058;DHT22;27499;48.884;2.258;2022-07-17T09:43:02;24.50;65.90
41058;DHT22;27499;48.884;2.258;2022-07-17T09:45:32;24.50;64.30
41058;DHT22;27499;48.884;2.258;2022-07-17T09:47:59;24.60;65.00
41058;DHT22;27499;48.884;2.258;2022-07-17T09:50:28;24.60;64.50
41058;DHT22;27499;48.884;2.258;2022-07-17T09:52:56;24.70;63.20
41058;DHT22;27499;48.884;2.258;2022-07-17T09:55:30;24.70;63.00
41058;DHT22;27499;48.884;2.258;2022-07-17T09:58:13;24.70;62.80
41058;DHT22;27499;48.884;2.258;2022-07-17T10:00:41;24.70;62.50
41058;DHT22;27499;48.884;2.258;2022-07-17T10:03:08;24.70;61.60
41058;DHT22;27499;48.884;2.258;2022-07-17T10:05:35;24.80;62.10
41058;DHT22;27499;48.884;2.258;2022-07-17T10:08:10;24.90;63.00
41058;DHT22;27499;48.884;2.258;2022-07-17T10:10:38;24.90;63.00
41058;DHT22;27499;48.884;2.258;2022-07-17T10:13:05;24.90;61.40
41058;DHT22;27499;48.884;2.258;2022-07-17T10:15:32;25.00;62.20
41058;DHT22;27499;48.884;2.258;2022-07-17T10:18:06;25.10;62.70
41058;DHT22;27499;48.884;2.258;2022-07-17T10:20:33;25.10;62.40
41058;DHT22;27499;48.884;2.258;2022-07-17T10:23:14;25.10;60.50
41058;DHT22;27499;48.884;2.258;2022-07-17T10:25:41;25.10;62.50
41058;DHT22;27499;48.884;2.258;2022-07-17T10:28:08;25.20;62.50
41058;DHT22;27499;48.884;2.258;2022-07-17T10:30:35;25.20;59.70
41058;DHT22;27499;48.884;2.258;2022-07-17T10:33:06;25.20;60.50
41058;DHT22;27499;48.884;2.258;2022-07-17T10:35:48;25.30;60.40
41058;DHT22;27499;48.884;2.258;2022-07-17T10:38:16;25.30;60.40
41058;DHT22;27499;48.884;2.258;2022-07-17T10:40:43;25.30;60.80
41058;DHT22;27499;48.884;2.258;2022-07-17T10:43:10;25.30;60.70
41058;DHT22;27499;48.884;2.258;2022-07-17T10:45:39;25.40;60.10
41058;DHT22;27499;48.884;2.258;2022-07-17T10:48:14;25.40;60.60
41058;DHT22;27499;48.884;2.258;2022-07-17T10:50:44;25.50;60.60
41058;DHT22;27499;48.884;2.258;2022-07-17T10:53:20;25.50;59.70
41058;DHT22;27499;48.884;2.258;2022-07-17T10:58:32;25.60;58.70
41058;DHT22;27499;48.884;2.258;2022-07-17T11:01:00;25.60;59.50
41058;DHT22;27499;48.884;2.258;2022-07-17T11:03:29;25.60;59.90
41058;DHT22;27499;48.884;2.258;2022-07-17T11:08:44;25.60;60.60
41058;DHT22;27499;48.884;2.258;2022-07-17T11:11:12;25.60;60.10
41058;DHT22;27499;48.884;2.258;2022-07-17T11:13:49;25.60;59.60
41058;DHT22;27499;48.884;2.258;2022-07-17T11:16:27;25.70;60.10
41058;DHT22;27499;48.884;2.258;2022-07-17T11:18:56;25.70;61.20
41058;DHT22;27499;48.884;2.258;2022-07-17T11:21:24;25.70;61.80
41058;DHT22;27499;48.884;2.258;2022-07-17T11:23:53;25.70;61.40
41058;DHT22;27499;48.884;2.258;2022-07-17T11:26:21;25.80;60.40
41058;DHT22;27499;48.884;2.258;2022-07-17T11:28:49;25.70;61.20
41058;DHT22;27499;48.884;2.258;2022-07-17T11:31:24;25.80;60.50
41058;DHT22;27499;48.884;2.258;2022-07-17T11:34:01;25.80;59.40
41058;DHT22;27499;48.884;2.258;2022-07-17T11:36:34;25.80;60.20
41058;DHT22;27499;48.884;2.258;2022-07-17T11:39:06;25.80;60.10
41058;DHT22;27499;48.884;2.258;2022-07-17T11:41:43;25.80;59.20
41058;DHT22;27499;48.884;2.258;2022-07-17T11:44:12;25.90;58.70
41058;DHT22;27499;48.884;2.258;2022-07-17T11:46:41;25.90;57.90
41058;DHT22;27499;48.884;2.258;2022-07-17T11:49:08;25.90;58.10
41058;DHT22;27499;48.884;2.258;2022-07-17T11:51:42;25.90;57.70
41058;DHT22;27499;48.884;2.258;2022-07-17T11:54:15;25.90;58.60
41058;DHT22;27499;48.884;2.258;2022-07-17T11:56:51;26.00;59.10
41058;DHT22;27499;48.884;2.258;2022-07-17T11:59:30;26.00;59.10
41058;DHT22;27499;48.884;2.258;2022-07-17T12:02:07;26.10;59.40
41058;DHT22;27499;48.884;2.258;2022-07-17T12:04:34;26.10;59.40
41058;DHT22;27499;48.884;2.258;2022-07-17T12:07:03;26.10;58.10
41058;DHT22;27499;48.884;2.258;2022-07-17T12:09:32;26.10;58.00
41058;DHT22;27499;48.884;2.258;2022-07-17T12:12:02;26.10;58.20
41058;DHT22;27499;48.884;2.258;2022-07-17T12:14:30;26.10;57.10
41058;DHT22;27499;48.884;2.258;2022-07-17T12:17:02;26.10;56.60
41058;DHT22;27499;48.884;2.258;2022-07-17T12:19:29;26.20;56.40
41058;DHT22;27499;48.884;2.258;2022-07-17T12:22:01;26.20;56.90
41058;DHT22;27499;48.884;2.258;2022-07-17T12:24:31;26.30;56.90
41058;DHT22;27499;48.884;2.258;2022-07-17T12:27:01;26.20;56.50
41058;DHT22;27499;48.884;2.258;2022-07-17T12:29:28;26.30;56.70
41058;DHT22;27499;48.884;2.258;2022-07-17T12:34:28;26.30;56.40
41058;DHT22;27499;48.884;2.258;2022-07-17T12:36:55;26.40;56.00
41058;DHT22;27499;48.884;2.258;2022-07-17T12:39:22;26.40;56.00
41058;DHT22;27499;48.884;2.258;2022-07-17T12:41:50;26.40;56.30
41058;DHT22;27499;48.884;2.258;2022-07-17T12:44:18;26.40;55.90
41058;DHT22;27499;48.884;2.258;2022-07-17T12:46:45;26.40;55.60
41058;DHT22;27499;48.884;2.258;2022-07-17T12:49:12;26.40;55.20
41058;DHT22;27499;48.884;2.258;2022-07-17T12:51:40;26.40;56.20
41058;DHT22;27499;48.884;2.258;2022-07-17T12:54:06;26.50;55.60
41058;DHT22;27499;48.884;2.258;2022-07-17T12:56:33;26.50;56.40
41058;DHT22;27499;48.884;2.258;2022-07-17T12:59:00;26.50;55.70
41058;DHT22;27499;48.884;2.258;2022-07-17T13:01:28;26.50;55.80
41058;DHT22;27499;48.884;2.258;2022-07-17T13:03:55;26.50;55.50
41058;DHT22;27499;48.884;2.258;2022-07-17T13:06:22;26.50;56.00
41058;DHT22;27499;48.884;2.258;2022-07-17T13:08:50;26.50;55.80
41058;DHT22;27499;48.884;2.258;2022-07-17T13:11:17;26.60;55.20
41058;DHT22;27499;48.884;2.258;2022-07-17T13:13:44;26.60;55.40
41058;DHT22;27499;48.884;2.258;2022-07-17T13:16:12;26.60;55.90
41058;DHT22;27499;48.884;2.258;2022-07-17T13:18:40;26.60;55.90
41058;DHT22;27499;48.884;2.258;2022-07-17T13:21:07;26.70;55.70
41058;DHT22;27499;48.884;2.258;2022-07-17T13:23:35;26.60;55.50
41058;DHT22;27499;48.884;2.258;2022-07-17T13:26:02;26.70;56.20
41058;DHT22;27499;48.884;2.258;2022-07-17T13:28:30;26.70;56.30
41058;DHT22;27499;48.884;2.258;2022-07-17T13:30:57;26.60;57.70
41058;DHT22;27499;48.884;2.258;2022-07-17T13:33:25;26.60;57.20
41058;DHT22;27499;48.884;2.258;2022-07-17T13:35:52;26.60;56.60
41058;DHT22;27499;48.884;2.258;2022-07-17T13:38:21;26.70;54.00
41058;DHT22;27499;48.884;2.258;2022-07-17T13:40:47;26.70;54.20
41058;DHT22;27499;48.884;2.258;2022-07-17T13:43:16;26.70;54.20
41058;DHT22;27499;48.884;2.258;2022-07-17T13:45:43;26.80;54.40
41058;DHT22;27499;48.884;2.258;2022-07-17T13:48:11;26.80;55.50
41058;DHT22;27499;48.884;2.258;2022-07-17T13:50:39;26.80;55.60
41058;DHT22;27499;48.884;2.258;2022-07-17T13:53:06;26.80;55.50
41058;DHT22;27499;48.884;2.258;2022-07-17T13:55:33;26.80;55.50
41058;DHT22;27499;48.884;2.258;2022-07-17T13:58:16;26.90;55.50
41058;DHT22;27499;48.884;2.258;2022-07-17T14:00:43;26.90;55.50
41058;DHT22;27499;48.884;2.258;2022-07-17T14:05:46;26.90;54.10
41058;DHT22;27499;48.884;2.258;2022-07-17T14:08:13;27.00;54.50
41058;DHT22;27499;48.884;2.258;2022-07-17T14:10:40;27.00;54.10
41058;DHT22;27499;48.884;2.258;2022-07-17T14:13:07;27.00;53.70
41058;DHT22;27499;48.884;2.258;2022-07-17T14:15:34;27.00;53.70
41058;DHT22;27499;48.884;2.258;2022-07-17T14:18:01;27.00;54.00
41058;DHT22;27499;48.884;2.258;2022-07-17T14:20:29;27.00;54.10
41058;DHT22;27499;48.884;2.258;2022-07-17T14:22:56;27.00;54.20
41058;DHT22;27499;48.884;2.258;2022-07-17T14:25:23;27.00;53.70
41058;DHT22;27499;48.884;2.258;2022-07-17T14:27:50;27.10;53.20
41058;DHT22;27499;48.884;2.258;2022-07-17T14:30:17;27.00;52.90
41058;DHT22;27499;48.884;2.258;2022-07-17T14:32:44;27.10;53.20
41058;DHT22;27499;48.884;2.258;2022-07-17T14:35:11;27.10;53.70
41058;DHT22;27499;48.884;2.258;2022-07-17T14:37:38;27.10;53.50
41058;DHT22;27499;48.884;2.258;2022-07-17T14:40:10;27.10;55.30
41058;DHT22;27499;48.884;2.258;2022-07-17T14:42:38;27.10;52.30
41058;DHT22;27499;48.884;2.258;2022-07-17T14:45:05;27.10;55.10
41058;DHT22;27499;48.884;2.258;2022-07-17T14:47:33;27.10;54.70
41058;DHT22;27499;48.884;2.258;2022-07-17T14:50:00;27.10;54.50
41058;DHT22;27499;48.884;2.258;2022-07-17T14:52:27;27.10;53.10
41058;DHT22;27499;48.884;2.258;2022-07-17T14:54:54;27.10;55.00
41058;DHT22;27499;48.884;2.258;2022-07-17T14:57:21;27.10;55.80
41058;DHT22;27499;48.884;2.258;2022-07-17T14:59:48;27.10;55.10
41058;DHT22;27499;48.884;2.258;2022-07-17T15:02:14;27.10;53.40
41058;DHT22;27499;48.884;2.258;2022-07-17T15:04:42;27.10;54.20
41058;DHT22;27499;48.884;2.258;2022-07-17T15:07:09;27.10;52.80
41058;DHT22;27499;48.884;2.258;2022-07-17T15:09:36;27.20;52.10
41058;DHT22;27499;48.884;2.258;2022-07-17T15:12:03;27.20;51.90
41058;DHT22;27499;48.884;2.258;2022-07-17T15:14:30;27.20;51.80
41058;DHT22;27499;48.884;2.258;2022-07-17T15:16:57;27.30;53.60
41058;DHT22;27499;48.884;2.258;2022-07-17T15:19:24;27.30;53.50
41058;DHT22;27499;48.884;2.258;2022-07-17T15:21:50;27.30;52.90
41058;DHT22;27499;48.884;2.258;2022-07-17T15:24:20;27.30;51.80
41058;DHT22;27499;48.884;2.258;2022-07-17T15:26:47;27.30;52.10
41058;DHT22;27499;48.884;2.258;2022-07-17T15:29:17;27.40;52.10
41058;DHT22;27499;48.884;2.258;2022-07-17T15:31:46;27.40;52.20
41058;DHT22;27499;48.884;2.258;2022-07-17T15:34:13;27.40;52.00
41058;DHT22;27499;48.884;2.258;2022-07-17T15:36:40;27.30;51.90
41058;DHT22;27499;48.884;2.258;2022-07-17T15:39:07;27.30;51.70
41058;DHT22;27499;48.884;2.258;2022-07-17T15:41:34;27.40;51.90
41058;DHT22;27499;48.884;2.258;2022-07-17T15:44:02;27.40;52.40
41058;DHT22;27499;48.884;2.258;2022-07-17T15:46:30;27.40;53.30
41058;DHT22;27499;48.884;2.258;2022-07-17T15:48:59;27.40;52.30